LTAG/ADF METAR and TAF weather

Enter ICAO airport designator
Station Type Date Time Source
LTAG METAR 2019/04/24 15:50 UTC NOAA

LTAG 241550Z 20006KT CAVOK 20/06 Q1023 NOSIG


Station Type Date Time Source
LTAG Decoded METAR 2019/04/24 15:50 UTC NOAA

Adana / Incirlik, Turkey (LTAG) 37-00N 035-25E 66M
Apr 24, 2019 - 11:50 AM EDT / 2019.04.24 1550 UTC
Wind: from the SSW (200 degrees) at 7 MPH (6 KT):0
Visibility: greater than 7 mile(s):0
Temperature: 68 F (20 C)
Dew Point: 42 F (6 C)
Relative Humidity: 39%
Pressure (altimeter): 30.21 in. Hg (1023 hPa)
ob: LTAG 241550Z 20006KT CAVOK 20/06 Q1023 NOSIG
cycle: 16

Station Type Date Time Source
LTAG TAF 2019/04/24 12:03 UTC NOAA

TAF TAF LTAG 241040Z 2412/2512 VRB02KT CAVOK
TEMPO 2419/2423 BKN070

Example: see airport list